createdAt,value
2022-12-23T00:04:19.505Z,8.85
2022-12-23T00:07:27.559Z,8.75
2022-12-23T00:14:38.076Z,8.95
2022-12-23T00:18:23.449Z,8.96
2022-12-23T00:21:32.053Z,9.02
2022-12-23T00:25:00.155Z,8.81
2022-12-23T00:28:16.764Z,8.77
2022-12-23T00:31:53.008Z,8.81
2022-12-23T00:35:46.794Z,8.81
2022-12-23T00:39:26.784Z,8.89
2022-12-23T00:43:02.341Z,9.01
2022-12-23T00:46:11.796Z,9.04
2022-12-23T00:49:47.816Z,9.06
2022-12-23T00:53:02.826Z,9.03
2022-12-23T00:56:26.274Z,9.03
2022-12-23T00:59:45.546Z,8.98
2022-12-23T01:03:18.346Z,9.11
2022-12-23T01:06:26.010Z,9.16
2022-12-23T01:09:36.143Z,9.02
2022-12-23T01:13:14.345Z,9.02
2022-12-23T01:16:22.452Z,8.95
2022-12-23T01:19:36.582Z,9.02
2022-12-23T01:22:51.952Z,9.05
2022-12-23T01:26:08.314Z,9.15
2022-12-23T01:29:19.023Z,9.16
2022-12-23T01:32:29.463Z,9.19
2022-12-23T01:35:38.771Z,9.15
2022-12-23T01:38:48.636Z,9.15
2022-12-23T01:42:12.092Z,9.24
2022-12-23T01:45:29.537Z,9.23
2022-12-23T01:48:50.807Z,9.31
2022-12-23T01:56:07.783Z,9.23
2022-12-23T01:59:42.349Z,9.16
2022-12-23T02:03:37.008Z,9.26
2022-12-23T02:07:11.311Z,9.39
2022-12-23T02:11:42.759Z,9.26
2022-12-23T02:19:21.578Z,9.29
2022-12-23T02:23:13.305Z,9.16
2022-12-23T02:27:12.894Z,9.38
2022-12-23T02:30:46.929Z,9.52
2022-12-23T02:34:17.245Z,9.43
2022-12-23T02:37:39.244Z,9.59
2022-12-23T02:40:57.267Z,9.62
2022-12-23T02:44:20.077Z,9.61
2022-12-23T02:48:24.039Z,9.58
2022-12-23T02:51:42.583Z,9.60
2022-12-23T02:54:57.572Z,9.63
2022-12-23T02:58:07.569Z,9.31
2022-12-23T03:01:37.065Z,9.53
2022-12-23T03:05:37.062Z,9.61
2022-12-23T03:09:01.945Z,9.60
2022-12-23T03:12:58.241Z,9.58
2022-12-23T03:16:43.467Z,9.46
2022-12-23T03:20:01.162Z,9.58
2022-12-23T03:23:42.469Z,9.34
2022-12-23T03:27:17.241Z,9.33
2022-12-23T03:31:02.983Z,9.37
2022-12-23T03:34:24.803Z,9.34
2022-12-23T03:37:37.947Z,9.44
2022-12-23T03:40:54.521Z,9.30
2022-12-23T03:44:08.804Z,9.38
2022-12-23T03:47:35.377Z,9.35
2022-12-23T03:51:27.075Z,9.47
2022-12-23T03:54:53.665Z,9.57
2022-12-23T03:58:27.817Z,9.58
2022-12-23T04:02:16.091Z,9.53
2022-12-23T04:06:23.391Z,9.34
2022-12-23T04:10:29.696Z,9.39
2022-12-23T04:13:54.249Z,8.96
2022-12-23T04:17:11.790Z,8.85
2022-12-23T04:20:33.289Z,8.89
2022-12-23T04:23:44.130Z,8.54
2022-12-23T04:26:59.103Z,8.59
2022-12-23T04:31:11.330Z,8.61
2022-12-23T04:35:36.595Z,8.74
2022-12-23T04:43:14.971Z,8.68
2022-12-23T04:46:34.759Z,8.63
2022-12-23T04:49:48.583Z,8.60
2022-12-23T04:53:04.730Z,8.67
2022-12-23T04:56:19.094Z,8.76
2022-12-23T04:59:31.622Z,8.66
2022-12-23T05:02:41.191Z,8.68
2022-12-23T05:06:05.242Z,8.71
2022-12-23T05:09:31.618Z,8.85
2022-12-23T05:21:11.821Z,8.62
2022-12-23T05:24:53.093Z,8.68
2022-12-23T05:28:54.916Z,8.71
2022-12-23T05:37:55.823Z,8.49
2022-12-23T05:41:40.833Z,8.46
2022-12-23T05:49:08.508Z,8.07
2022-12-23T05:52:45.393Z,8.03
2022-12-23T05:56:29.876Z,8.24
2022-12-23T05:59:53.113Z,8.14
2022-12-23T06:03:39.234Z,8.10
2022-12-23T06:07:22.393Z,7.98
2022-12-23T06:11:59.421Z,8.22
2022-12-23T06:16:43.979Z,8.24
2022-12-23T06:20:33.052Z,8.25
2022-12-23T06:28:25.358Z,8.50
2022-12-23T06:31:29.365Z,8.58
2022-12-23T06:34:33.637Z,8.59
2022-12-23T06:37:39.398Z,8.60
2022-12-23T06:40:43.894Z,8.47
2022-12-23T06:43:54.150Z,8.50
2022-12-23T06:47:04.242Z,8.36
2022-12-23T06:50:54.985Z,8.50
2022-12-23T06:54:58.556Z,8.72
2022-12-23T06:58:54.429Z,8.80
2022-12-23T07:06:47.366Z,8.63
2022-12-23T07:14:57.426Z,8.93
2022-12-23T07:18:14.348Z,9.10
2022-12-23T07:21:28.700Z,9.11
2022-12-23T07:24:33.272Z,9.07
2022-12-23T07:27:37.564Z,8.99
2022-12-23T07:30:41.253Z,9.10
2022-12-23T07:33:49.694Z,9.24
2022-12-23T07:36:55.431Z,9.41
2022-12-23T07:40:06.576Z,9.52
2022-12-23T07:43:12.495Z,9.14
2022-12-23T07:46:17.393Z,9.33
2022-12-23T07:49:24.048Z,9.65
2022-12-23T07:52:28.225Z,9.66
2022-12-23T07:55:36.363Z,9.72
2022-12-23T07:58:42.209Z,9.81
2022-12-23T08:01:47.463Z,9.94
2022-12-23T08:04:55.030Z,10.01
2022-12-23T08:08:01.337Z,10.02
2022-12-23T08:11:08.345Z,10.10
2022-12-23T08:14:38.859Z,10.14
2022-12-23T08:17:45.397Z,10.21
2022-12-23T08:20:57.436Z,10.23
2022-12-23T08:24:01.643Z,9.99
2022-12-23T08:27:07.487Z,10.08
2022-12-23T08:30:15.704Z,10.22
2022-12-23T08:33:19.478Z,10.24
2022-12-23T08:36:27.196Z,10.32
2022-12-23T08:39:31.028Z,10.35
2022-12-23T08:42:38.402Z,10.37
2022-12-23T08:45:42.070Z,10.38
2022-12-23T08:48:49.494Z,10.42
2022-12-23T08:51:55.249Z,10.47
2022-12-23T08:55:00.822Z,10.58
2022-12-23T08:58:04.881Z,10.67
2022-12-23T09:01:13.218Z,10.75
2022-12-23T09:04:17.417Z,10.71
2022-12-23T09:07:24.681Z,10.85
2022-12-23T09:10:29.292Z,10.88
2022-12-23T09:13:36.736Z,10.89
2022-12-23T09:16:42.078Z,10.97
2022-12-23T09:19:52.728Z,11.03
2022-12-23T09:23:00.592Z,11.14
2022-12-23T09:26:05.988Z,11.14
2022-12-23T09:29:09.950Z,11.25
2022-12-23T09:32:14.233Z,11.31
2022-12-23T09:35:18.820Z,11.34
2022-12-23T09:38:24.838Z,11.24
2022-12-23T09:41:44.986Z,11.32
2022-12-23T09:45:13.112Z,11.21
2022-12-23T09:48:28.797Z,11.33
2022-12-23T09:51:34.976Z,11.35
2022-12-23T09:54:46.103Z,11.41
2022-12-23T09:57:59.079Z,11.37
2022-12-23T10:01:15.726Z,11.47
2022-12-23T10:04:38.132Z,11.45
2022-12-23T10:07:47.440Z,11.54
2022-12-23T10:10:58.563Z,11.51
2022-12-23T10:14:12.311Z,11.60
2022-12-23T10:17:22.888Z,11.59
2022-12-23T10:20:38.087Z,11.64
2022-12-23T10:23:45.695Z,11.67
2022-12-23T10:26:55.143Z,11.75
2022-12-23T10:30:19.966Z,11.84
2022-12-23T10:33:37.365Z,11.83
2022-12-23T10:36:51.904Z,11.83
2022-12-23T10:40:09.243Z,11.88
2022-12-23T10:43:24.261Z,11.96
2022-12-23T10:46:38.078Z,12.00
2022-12-23T10:49:55.177Z,12.03
2022-12-23T10:53:07.785Z,12.08
2022-12-23T10:56:15.513Z,12.14
2022-12-23T10:59:27.480Z,12.11
2022-12-23T11:02:47.045Z,12.20
2022-12-23T11:05:54.445Z,12.21
2022-12-23T11:09:00.903Z,12.27
2022-12-23T11:12:08.232Z,12.32
2022-12-23T11:15:31.641Z,12.31
2022-12-23T11:18:41.869Z,12.43
2022-12-23T11:21:56.253Z,12.45
2022-12-23T11:25:26.889Z,12.51
2022-12-23T11:28:32.523Z,12.58
2022-12-23T11:31:38.276Z,12.56
2022-12-23T11:34:46.617Z,12.60
2022-12-23T11:37:50.564Z,12.60
2022-12-23T11:40:54.811Z,12.61
2022-12-23T11:44:05.118Z,12.66
2022-12-23T11:47:26.576Z,12.69
2022-12-23T11:50:34.490Z,12.74
2022-12-23T11:53:44.015Z,12.76
2022-12-23T11:56:51.667Z,12.82
2022-12-23T11:59:59.406Z,12.80
2022-12-23T12:03:20.396Z,12.81
2022-12-23T12:06:27.776Z,12.91
2022-12-23T12:09:32.848Z,12.92
2022-12-23T12:12:36.987Z,12.90
2022-12-23T12:15:50.462Z,12.97
2022-12-23T12:18:58.940Z,12.94
2022-12-23T12:22:15.587Z,13.03
2022-12-23T12:25:22.957Z,13.08
2022-12-23T12:28:30.553Z,13.13
2022-12-23T12:31:43.547Z,13.05
2022-12-23T12:34:56.083Z,13.03
2022-12-23T12:38:12.268Z,13.12
2022-12-23T12:41:23.422Z,13.11
2022-12-23T12:44:38.314Z,13.14
2022-12-23T12:47:55.245Z,13.16
2022-12-23T12:51:10.762Z,13.14
2022-12-23T12:54:22.520Z,13.19
2022-12-23T12:57:28.387Z,13.19
2022-12-23T13:00:48.005Z,13.18
2022-12-23T13:04:25.044Z,13.20
2022-12-23T13:07:39.468Z,13.18
2022-12-23T13:10:50.711Z,13.27
2022-12-23T13:14:03.615Z,13.23
2022-12-23T13:17:13.902Z,13.22
2022-12-23T13:20:29.107Z,13.21
2022-12-23T13:23:44.358Z,13.22
2022-12-23T13:26:59.277Z,13.24
2022-12-23T13:30:13.478Z,13.23
2022-12-23T13:33:27.042Z,13.19
2022-12-23T13:36:46.880Z,13.19
2022-12-23T13:39:59.423Z,13.15
2022-12-23T13:43:14.500Z,13.18
2022-12-23T13:46:36.435Z,13.17
2022-12-23T13:49:55.391Z,13.12
2022-12-23T13:53:11.626Z,13.10
2022-12-23T13:56:27.190Z,13.10
2022-12-23T13:59:45.694Z,13.08
2022-12-23T14:03:21.717Z,13.07
2022-12-23T14:06:47.500Z,13.04
2022-12-23T14:09:55.156Z,13.02
2022-12-23T14:13:33.050Z,12.96
2022-12-23T14:16:59.709Z,13.02
2022-12-23T14:20:18.929Z,12.91
2022-12-23T14:23:42.475Z,12.91
2022-12-23T14:27:14.208Z,12.91
2022-12-23T14:30:28.247Z,12.87
2022-12-23T14:33:35.893Z,12.83
2022-12-23T14:37:03.442Z,12.83
2022-12-23T14:40:55.093Z,12.73
2022-12-23T14:44:03.794Z,12.69
2022-12-23T14:47:32.847Z,12.59
2022-12-23T14:50:43.517Z,12.56
2022-12-23T14:54:13.469Z,12.50
2022-12-23T14:57:23.436Z,12.39
2022-12-23T15:00:50.872Z,12.20
2022-12-23T15:04:02.072Z,12.19
2022-12-23T15:07:08.879Z,12.06
2022-12-23T15:10:20.113Z,11.91
2022-12-23T15:13:26.933Z,11.80
2022-12-23T15:16:36.431Z,11.77
2022-12-23T15:19:49.231Z,11.63
2022-12-23T15:23:03.455Z,11.42
2022-12-23T15:26:07.633Z,11.33
2022-12-23T15:29:17.989Z,11.20
2022-12-23T15:32:25.854Z,11.14
2022-12-23T15:35:34.801Z,11.07
2022-12-23T15:38:42.928Z,10.93
2022-12-23T15:41:48.824Z,10.92
2022-12-23T15:44:55.464Z,10.97
2022-12-23T15:48:01.150Z,10.83
2022-12-23T15:51:21.953Z,10.66
2022-12-23T15:54:46.972Z,10.55
2022-12-23T15:57:52.827Z,10.50
2022-12-23T16:00:58.973Z,10.44
2022-12-23T16:04:05.622Z,9.93
2022-12-23T16:07:26.301Z,10.16
2022-12-23T16:10:30.215Z,10.13
2022-12-23T16:13:34.624Z,10.26
2022-12-23T16:16:45.322Z,9.99
2022-12-23T16:19:53.449Z,9.90
2022-12-23T16:23:08.248Z,9.75
2022-12-23T16:26:16.817Z,9.69
2022-12-23T16:29:21.795Z,9.72
2022-12-23T16:32:26.367Z,9.57
2022-12-23T16:35:37.965Z,9.46
2022-12-23T16:38:44.435Z,9.56
2022-12-23T16:41:48.275Z,9.49
2022-12-23T16:44:52.847Z,9.37
2022-12-23T16:47:58.931Z,9.47
2022-12-23T16:51:06.764Z,9.51
2022-12-23T16:54:15.842Z,9.43
2022-12-23T16:57:19.861Z,9.43
2022-12-23T17:00:24.618Z,9.44
2022-12-23T17:03:29.323Z,9.18
2022-12-23T17:06:33.103Z,9.25
2022-12-23T17:09:40.719Z,9.31
2022-12-23T17:12:45.729Z,9.19
2022-12-23T17:15:50.051Z,8.57
2022-12-23T17:18:57.477Z,8.83
2022-12-23T17:22:04.795Z,8.70
2022-12-23T17:25:13.145Z,8.59
2022-12-23T17:28:17.441Z,8.43
2022-12-23T17:31:26.970Z,8.38
2022-12-23T17:34:31.612Z,8.18
2022-12-23T17:37:35.489Z,8.32
2022-12-23T17:40:41.749Z,8.00
2022-12-23T17:43:45.657Z,8.02
2022-12-23T17:46:50.014Z,8.08
2022-12-23T17:49:53.792Z,7.99
2022-12-23T17:53:00.135Z,8.07
2022-12-23T17:56:15.571Z,8.28
2022-12-23T17:59:22.433Z,8.30
2022-12-23T18:02:30.753Z,7.86
2022-12-23T18:05:36.379Z,7.73
2022-12-23T18:08:40.024Z,7.97
2022-12-23T18:11:48.024Z,7.91
2022-12-23T18:14:52.323Z,8.02
2022-12-23T18:17:57.002Z,7.87
2022-12-23T18:21:00.971Z,7.42
2022-12-23T18:24:08.449Z,7.46
2022-12-23T18:27:15.911Z,7.49
2022-12-23T18:30:21.132Z,7.67
2022-12-23T18:33:28.956Z,7.70
2022-12-23T18:36:35.037Z,7.86
2022-12-23T18:39:38.809Z,7.36
2022-12-23T18:42:44.491Z,7.52
2022-12-23T18:45:53.205Z,7.50
2022-12-23T18:48:58.909Z,7.42
2022-12-23T18:52:05.133Z,7.52
2022-12-23T18:55:13.247Z,7.47
2022-12-23T18:58:19.701Z,7.27
2022-12-23T19:01:24.516Z,7.40
2022-12-23T19:04:28.968Z,7.22
2022-12-23T19:07:34.531Z,7.39
2022-12-23T19:10:39.092Z,7.03
2022-12-23T19:13:45.477Z,7.02
2022-12-23T19:16:52.338Z,6.94
2022-12-23T19:19:57.978Z,6.84
2022-12-23T19:23:03.229Z,7.12
2022-12-23T19:26:11.665Z,6.92
2022-12-23T19:29:17.385Z,7.13
2022-12-23T19:32:23.477Z,7.26
2022-12-23T19:35:34.155Z,7.37
2022-12-23T19:38:43.124Z,7.32
2022-12-23T19:41:48.302Z,6.98
2022-12-23T19:44:55.406Z,6.92
2022-12-23T19:48:03.839Z,7.13
2022-12-23T19:51:10.611Z,7.18
2022-12-23T19:54:14.185Z,7.09
2022-12-23T19:57:20.628Z,6.92
2022-12-23T20:00:26.104Z,6.88
2022-12-23T20:03:30.845Z,7.01
2022-12-23T20:06:39.183Z,6.82
2022-12-23T20:09:44.937Z,6.74
2022-12-23T20:12:49.193Z,6.68
2022-12-23T20:15:54.667Z,6.71
2022-12-23T20:19:01.305Z,6.82
2022-12-23T20:22:05.885Z,6.69
2022-12-23T20:25:12.269Z,6.75
2022-12-23T20:28:16.706Z,6.74
2022-12-23T20:31:23.338Z,6.78
2022-12-23T20:34:33.203Z,6.75
2022-12-23T20:37:40.410Z,6.83
2022-12-23T20:40:46.506Z,6.89
2022-12-23T20:44:31.792Z,6.96
2022-12-23T20:47:19.242Z,7.00
2022-12-23T20:50:24.895Z,6.67
2022-12-23T20:53:31.236Z,6.91
2022-12-23T20:56:35.218Z,6.63
2022-12-23T20:59:39.518Z,6.47
2022-12-23T21:02:48.511Z,6.69
2022-12-23T21:05:59.246Z,6.78
2022-12-23T21:09:05.652Z,6.58
2022-12-23T21:12:09.762Z,6.61
2022-12-23T21:15:13.579Z,6.56
2022-12-23T21:18:20.239Z,6.60
2022-12-23T21:21:26.658Z,6.74
2022-12-23T21:24:30.623Z,6.73
2022-12-23T21:27:34.239Z,6.68
2022-12-23T21:30:38.569Z,6.27
2022-12-23T21:33:46.365Z,6.47
2022-12-23T21:36:50.723Z,6.41
2022-12-23T21:39:56.491Z,6.43
2022-12-23T21:43:08.858Z,6.54
2022-12-23T21:46:40.869Z,6.47
2022-12-23T21:49:47.543Z,6.79
2022-12-23T21:52:51.326Z,6.49
2022-12-23T21:55:55.335Z,5.74
2022-12-23T21:59:00.358Z,6.27
2022-12-23T22:02:04.666Z,6.34
2022-12-23T22:05:11.841Z,6.14
2022-12-23T22:08:15.860Z,6.09
2022-12-23T22:11:21.980Z,6.16
2022-12-23T22:14:26.442Z,6.15
2022-12-23T22:17:31.789Z,6.14
2022-12-23T22:20:46.058Z,6.12
2022-12-23T22:23:51.782Z,5.90
2022-12-23T22:26:57.613Z,6.04
2022-12-23T22:30:03.026Z,6.02
2022-12-23T22:33:09.372Z,5.92
2022-12-23T22:36:17.218Z,5.94
2022-12-23T22:39:22.968Z,5.97
2022-12-23T22:42:26.962Z,5.86
2022-12-23T22:45:31.992Z,5.96
2022-12-23T22:48:37.226Z,6.00
2022-12-23T22:51:45.743Z,5.93
2022-12-23T22:54:49.608Z,6.10
2022-12-23T22:57:54.177Z,5.82
2022-12-23T23:00:59.134Z,5.94
2022-12-23T23:04:08.256Z,5.79
2022-12-23T23:07:14.930Z,5.94
2022-12-23T23:10:20.172Z,5.93
2022-12-23T23:13:26.542Z,5.77
2022-12-23T23:16:31.884Z,5.75
2022-12-23T23:19:35.894Z,5.71
2022-12-23T23:22:44.699Z,5.79
2022-12-23T23:25:48.817Z,5.71
2022-12-23T23:28:53.303Z,5.56
2022-12-23T23:31:57.152Z,5.43
2022-12-23T23:35:08.761Z,5.68
2022-12-23T23:38:17.078Z,5.55
2022-12-23T23:41:24.425Z,5.76
2022-12-23T23:44:30.159Z,5.65
2022-12-23T23:47:34.958Z,5.80
2022-12-23T23:50:46.234Z,5.74
2022-12-23T23:53:52.496Z,5.93
2022-12-23T23:56:57.629Z,5.88
